This is the latest recevied weather packets stored in our database for station/object YN3ZBQ-13. If no packets are shown the sender has not sent any weather packets the latest 10 day(s).
| Time | Temp. | Humidity | Pressure | Rain* | Wind** | Luminosity | Snow |
|---|---|---|---|---|---|---|---|
| 1778255824 | 32.78° C | 40% | 1010 hPa | 0 mm | - | - | - |
| 1778255223 | 31.67° C | 40% | 1010 hPa | 0 mm | - | - | - |
| 1778254623 | 32.22° C | 40% | 1010 hPa | 0 mm | - | - | - |
| 1778254023 | 32.78° C | 40% | 1010 hPa | 0 mm | - | - | - |
| 1778253422 | 29.44° C | 58% | 1010 hPa | 0 mm | - | - | - |
| 1778252822 | 30° C | 58% | 1010 hPa | 0 mm | - | - | - |
| 1778252221 | 29.44° C | 58% | 1010 hPa | 0 mm | - | - | - |
| 1778251621 | 29.44° C | 58% | 1010 hPa | 0 mm | - | - | - |
| 1778251021 | 28.89° C | 58% | 1010 hPa | 0 mm | - | - | - |
| 1778250421 | 29.44° C | 58% | 1010 hPa | 0 mm | - | - | - |
| 1778249820 | 27.78° C | 73% | 1010 hPa | 0 mm | - | - | - |
| 1778249220 | 28.33° C | 73% | 1010 hPa | 0 mm | - | - | - |
| 1778248619 | 27.78° C | 74% | 1010 hPa | 0 mm | - | - | - |
| 1778248019 | 27.78° C | 74% | 1010 hPa | 0 mm | - | - | - |
| 1778247418 | 27.22° C | 74% | 1010 hPa | 0 mm | - | - | - |
| 1778246818 | 27.78° C | 74% | 1010 hPa | 0 mm | - | - | - |
| 1778246218 | 25.56° C | 88% | 1010 hPa | 0 mm | - | - | - |
| 1778245617 | 26.11° C | 88% | 1010 hPa | 0 mm | - | - | - |
| 1778245017 | 25.56° C | 89% | 1010 hPa | 0 mm | - | - | - |
| 1778244417 | 25° C | 89% | 1010 hPa | 0 mm | - | - | - |
| 1778243817 | 25° C | 89% | 1010 hPa | 0 mm | - | - | - |
| 1778243216 | 25.56° C | 89% | 1010 hPa | 0 mm | - | - | - |
| 1778242616 | 23.89° C | 77% | 1010 hPa | 0 mm | - | - | - |
| 1778242015 | 24.44° C | 77% | 1010 hPa | 0 mm | - | - | - |
| 1778241415 | 23.89° C | 77% | 1010 hPa | 0 mm | - | - | - |
* Rain latest hour (hover to see other rain measurements)
** Current wind speed in m/s (hover to see current wind gust speed)